sensor_id;sensor_type;location;lat;lon;timestamp;P1;durP1;ratioP1;P2;durP2;ratioP2
23720;SDS011;42950;52.134;5.578;2022-12-18T00:03:42;85.13;;;38.72;;
23720;SDS011;42950;52.134;5.578;2022-12-18T00:06:07;81.38;;;38.50;;
23720;SDS011;42950;52.134;5.578;2022-12-18T00:08:33;85.88;;;38.80;;
23720;SDS011;42950;52.134;5.578;2022-12-18T00:11:03;82.18;;;37.92;;
23720;SDS011;42950;52.134;5.578;2022-12-18T00:13:30;85.82;;;36.97;;
23720;SDS011;42950;52.134;5.578;2022-12-18T00:16:00;78.72;;;35.42;;
23720;SDS011;42950;52.134;5.578;2022-12-18T00:18:31;87.60;;;37.88;;
23720;SDS011;42950;52.134;5.578;2022-12-18T00:21:01;88.00;;;38.65;;
23720;SDS011;42950;52.134;5.578;2022-12-18T00:23:29;86.45;;;37.88;;
23720;SDS011;42950;52.134;5.578;2022-12-18T00:25:58;85.80;;;39.22;;
23720;SDS011;42950;52.134;5.578;2022-12-18T00:28:26;88.35;;;36.92;;
23720;SDS011;42950;52.134;5.578;2022-12-18T00:31:06;93.97;;;40.58;;
23720;SDS011;42950;52.134;5.578;2022-12-18T00:33:33;93.10;;;40.25;;
23720;SDS011;42950;52.134;5.578;2022-12-18T00:36:06;93.40;;;39.15;;
23720;SDS011;42950;52.134;5.578;2022-12-18T00:38:36;90.88;;;39.50;;
23720;SDS011;42950;52.134;5.578;2022-12-18T00:41:02;90.40;;;39.13;;
23720;SDS011;42950;52.134;5.578;2022-12-18T00:43:28;96.15;;;41.53;;
23720;SDS011;42950;52.134;5.578;2022-12-18T00:45:54;96.22;;;40.78;;
23720;SDS011;42950;52.134;5.578;2022-12-18T00:48:19;98.03;;;42.45;;
23720;SDS011;42950;52.134;5.578;2022-12-18T00:50:47;94.10;;;40.47;;
23720;SDS011;42950;52.134;5.578;2022-12-18T00:53:13;95.55;;;40.58;;
23720;SDS011;42950;52.134;5.578;2022-12-18T00:55:39;92.18;;;40.38;;
23720;SDS011;42950;52.134;5.578;2022-12-18T00:58:06;94.70;;;40.85;;
23720;SDS011;42950;52.134;5.578;2022-12-18T01:00:31;94.10;;;39.35;;
23720;SDS011;42950;52.134;5.578;2022-12-18T01:02:57;89.10;;;38.75;;
23720;SDS011;42950;52.134;5.578;2022-12-18T01:05:23;96.40;;;41.75;;
23720;SDS011;42950;52.134;5.578;2022-12-18T01:07:48;88.82;;;39.22;;
23720;SDS011;42950;52.134;5.578;2022-12-18T01:10:14;86.05;;;38.38;;
23720;SDS011;42950;52.134;5.578;2022-12-18T01:12:39;88.60;;;38.63;;
23720;SDS011;42950;52.134;5.578;2022-12-18T01:15:06;87.43;;;38.05;;
23720;SDS011;42950;52.134;5.578;2022-12-18T01:17:32;85.50;;;37.05;;
23720;SDS011;42950;52.134;5.578;2022-12-18T01:19:58;84.45;;;37.13;;
23720;SDS011;42950;52.134;5.578;2022-12-18T01:22:24;87.10;;;38.13;;
23720;SDS011;42950;52.134;5.578;2022-12-18T01:24:49;80.90;;;36.10;;
23720;SDS011;42950;52.134;5.578;2022-12-18T01:27:15;81.68;;;36.45;;
23720;SDS011;42950;52.134;5.578;2022-12-18T01:29:40;87.57;;;38.13;;
23720;SDS011;42950;52.134;5.578;2022-12-18T01:32:06;80.13;;;35.13;;
23720;SDS011;42950;52.134;5.578;2022-12-18T01:34:32;78.55;;;37.40;;
23720;SDS011;42950;52.134;5.578;2022-12-18T01:36:57;82.90;;;35.65;;
23720;SDS011;42950;52.134;5.578;2022-12-18T01:39:23;77.43;;;35.65;;
23720;SDS011;42950;52.134;5.578;2022-12-18T01:41:48;78.57;;;36.22;;
23720;SDS011;42950;52.134;5.578;2022-12-18T01:50:00;80.07;;;36.85;;
23720;SDS011;42950;52.134;5.578;2022-12-18T01:52:36;76.15;;;34.55;;
23720;SDS011;42950;52.134;5.578;2022-12-18T01:55:10;76.32;;;36.65;;
23720;SDS011;42950;52.134;5.578;2022-12-18T01:57:37;82.15;;;36.97;;
23720;SDS011;42950;52.134;5.578;2022-12-18T02:00:06;75.55;;;35.80;;
23720;SDS011;42950;52.134;5.578;2022-12-18T02:02:34;73.97;;;34.95;;
23720;SDS011;42950;52.134;5.578;2022-12-18T02:05:00;70.90;;;34.75;;
23720;SDS011;42950;52.134;5.578;2022-12-18T02:07:31;74.35;;;34.63;;
23720;SDS011;42950;52.134;5.578;2022-12-18T02:18:32;74.93;;;35.30;;
23720;SDS011;42950;52.134;5.578;2022-12-18T02:21:08;76.15;;;34.38;;
23720;SDS011;42950;52.134;5.578;2022-12-18T02:24:03;69.97;;;33.83;;
23720;SDS011;42950;52.134;5.578;2022-12-18T02:26:40;73.93;;;36.25;;
23720;SDS011;42950;52.134;5.578;2022-12-18T02:29:12;72.07;;;32.47;;
23720;SDS011;42950;52.134;5.578;2022-12-18T02:31:52;69.32;;;33.53;;
23720;SDS011;42950;52.134;5.578;2022-12-18T02:34:22;68.30;;;33.30;;
23720;SDS011;42950;52.134;5.578;2022-12-18T02:36:52;69.18;;;31.73;;
23720;SDS011;42950;52.134;5.578;2022-12-18T02:39:19;61.95;;;30.83;;
23720;SDS011;42950;52.134;5.578;2022-12-18T02:41:47;64.00;;;32.50;;
23720;SDS011;42950;52.134;5.578;2022-12-18T02:44:13;67.53;;;32.05;;
23720;SDS011;42950;52.134;5.578;2022-12-18T02:46:41;68.95;;;32.10;;
23720;SDS011;42950;52.134;5.578;2022-12-18T02:49:22;66.50;;;32.20;;
23720;SDS011;42950;52.134;5.578;2022-12-18T02:52:04;66.15;;;32.33;;
23720;SDS011;42950;52.134;5.578;2022-12-18T02:54:55;63.70;;;31.48;;
23720;SDS011;42950;52.134;5.578;2022-12-18T02:57:30;68.68;;;31.42;;
23720;SDS011;42950;52.134;5.578;2022-12-18T03:00:06;62.17;;;30.95;;
23720;SDS011;42950;52.134;5.578;2022-12-18T03:02:39;65.22;;;31.60;;
23720;SDS011;42950;52.134;5.578;2022-12-18T03:05:17;58.92;;;30.40;;
23720;SDS011;42950;52.134;5.578;2022-12-18T03:10:26;66.72;;;30.40;;
23720;SDS011;42950;52.134;5.578;2022-12-18T03:12:56;59.92;;;30.98;;
23720;SDS011;42950;52.134;5.578;2022-12-18T03:15:29;62.75;;;31.67;;
23720;SDS011;42950;52.134;5.578;2022-12-18T03:18:04;61.92;;;28.67;;
23720;SDS011;42950;52.134;5.578;2022-12-18T03:20:34;59.63;;;29.45;;
23720;SDS011;42950;52.134;5.578;2022-12-18T03:23:11;58.10;;;30.30;;
23720;SDS011;42950;52.134;5.578;2022-12-18T03:25:41;59.50;;;29.70;;
23720;SDS011;42950;52.134;5.578;2022-12-18T03:28:13;59.97;;;29.77;;
23720;SDS011;42950;52.134;5.578;2022-12-18T03:30:43;52.08;;;26.80;;
23720;SDS011;42950;52.134;5.578;2022-12-18T03:33:12;54.28;;;27.00;;
23720;SDS011;42950;52.134;5.578;2022-12-18T03:35:46;48.53;;;25.52;;
23720;SDS011;42950;52.134;5.578;2022-12-18T03:38:12;54.55;;;26.45;;
23720;SDS011;42950;52.134;5.578;2022-12-18T03:40:48;51.40;;;26.65;;
23720;SDS011;42950;52.134;5.578;2022-12-18T03:43:42;51.83;;;26.08;;
23720;SDS011;42950;52.134;5.578;2022-12-18T03:52:30;42.50;;;23.88;;
23720;SDS011;42950;52.134;5.578;2022-12-18T03:55:01;45.53;;;24.05;;
23720;SDS011;42950;52.134;5.578;2022-12-18T03:57:30;47.67;;;23.67;;
23720;SDS011;42950;52.134;5.578;2022-12-18T04:00:30;44.08;;;24.15;;
23720;SDS011;42950;52.134;5.578;2022-12-18T04:02:50;48.92;;;25.27;;
23720;SDS011;42950;52.134;5.578;2022-12-18T04:05:18;47.78;;;24.92;;
23720;SDS011;42950;52.134;5.578;2022-12-18T04:07:46;47.90;;;23.98;;
23720;SDS011;42950;52.134;5.578;2022-12-18T04:10:15;42.83;;;23.98;;
23720;SDS011;42950;52.134;5.578;2022-12-18T04:12:41;46.47;;;24.38;;
23720;SDS011;42950;52.134;5.578;2022-12-18T04:15:07;44.75;;;23.38;;
23720;SDS011;42950;52.134;5.578;2022-12-18T04:17:34;46.40;;;23.85;;
23720;SDS011;42950;52.134;5.578;2022-12-18T04:19:59;45.95;;;24.02;;
23720;SDS011;42950;52.134;5.578;2022-12-18T04:22:25;47.58;;;25.45;;
23720;SDS011;42950;52.134;5.578;2022-12-18T04:24:51;43.22;;;23.77;;
23720;SDS011;42950;52.134;5.578;2022-12-18T04:27:17;46.45;;;24.23;;
23720;SDS011;42950;52.134;5.578;2022-12-18T04:29:43;46.38;;;24.70;;
23720;SDS011;42950;52.134;5.578;2022-12-18T04:32:08;43.40;;;23.80;;
23720;SDS011;42950;52.134;5.578;2022-12-18T04:34:34;43.50;;;24.23;;
23720;SDS011;42950;52.134;5.578;2022-12-18T04:36:59;44.55;;;23.55;;
23720;SDS011;42950;52.134;5.578;2022-12-18T04:39:25;42.30;;;22.85;;
23720;SDS011;42950;52.134;5.578;2022-12-18T04:41:50;43.53;;;22.55;;
23720;SDS011;42950;52.134;5.578;2022-12-18T04:44:16;45.17;;;23.67;;
23720;SDS011;42950;52.134;5.578;2022-12-18T04:46:42;40.05;;;21.40;;
23720;SDS011;42950;52.134;5.578;2022-12-18T04:49:07;45.58;;;22.92;;
23720;SDS011;42950;52.134;5.578;2022-12-18T04:51:35;37.17;;;21.98;;
23720;SDS011;42950;52.134;5.578;2022-12-18T04:54:01;38.83;;;21.88;;
23720;SDS011;42950;52.134;5.578;2022-12-18T04:56:26;45.90;;;22.92;;
23720;SDS011;42950;52.134;5.578;2022-12-18T04:58:52;42.95;;;22.00;;
23720;SDS011;42950;52.134;5.578;2022-12-18T05:01:18;40.10;;;22.20;;
23720;SDS011;42950;52.134;5.578;2022-12-18T05:03:43;36.55;;;20.38;;
23720;SDS011;42950;52.134;5.578;2022-12-18T05:06:09;38.47;;;20.85;;
23720;SDS011;42950;52.134;5.578;2022-12-18T05:08:35;35.75;;;19.52;;
23720;SDS011;42950;52.134;5.578;2022-12-18T05:11:02;36.15;;;20.42;;
23720;SDS011;42950;52.134;5.578;2022-12-18T05:13:32;34.10;;;19.38;;
23720;SDS011;42950;52.134;5.578;2022-12-18T05:15:58;31.13;;;18.40;;
23720;SDS011;42950;52.134;5.578;2022-12-18T05:18:24;36.97;;;20.40;;
23720;SDS011;42950;52.134;5.578;2022-12-18T05:20:51;38.78;;;20.00;;
23720;SDS011;42950;52.134;5.578;2022-12-18T05:23:17;34.53;;;19.65;;
23720;SDS011;42950;52.134;5.578;2022-12-18T05:25:50;34.58;;;19.67;;
23720;SDS011;42950;52.134;5.578;2022-12-18T05:28:20;36.20;;;20.30;;
23720;SDS011;42950;52.134;5.578;2022-12-18T05:30:49;37.40;;;19.65;;
23720;SDS011;42950;52.134;5.578;2022-12-18T05:33:16;36.45;;;18.25;;
23720;SDS011;42950;52.134;5.578;2022-12-18T05:35:43;39.63;;;19.85;;
23720;SDS011;42950;52.134;5.578;2022-12-18T05:38:09;32.45;;;19.52;;
23720;SDS011;42950;52.134;5.578;2022-12-18T05:40:34;32.63;;;18.95;;
23720;SDS011;42950;52.134;5.578;2022-12-18T05:43:01;31.30;;;19.25;;
23720;SDS011;42950;52.134;5.578;2022-12-18T05:45:30;31.40;;;19.17;;
23720;SDS011;42950;52.134;5.578;2022-12-18T05:47:55;31.40;;;19.42;;
23720;SDS011;42950;52.134;5.578;2022-12-18T05:50:21;31.70;;;16.92;;
23720;SDS011;42950;52.134;5.578;2022-12-18T05:52:46;32.42;;;19.35;;
23720;SDS011;42950;52.134;5.578;2022-12-18T05:55:12;29.85;;;17.92;;
23720;SDS011;42950;52.134;5.578;2022-12-18T05:57:37;30.48;;;17.60;;
23720;SDS011;42950;52.134;5.578;2022-12-18T06:00:03;29.13;;;17.55;;
23720;SDS011;42950;52.134;5.578;2022-12-18T06:02:29;31.70;;;16.92;;
23720;SDS011;42950;52.134;5.578;2022-12-18T06:04:54;33.50;;;17.33;;
23720;SDS011;42950;52.134;5.578;2022-12-18T06:07:20;33.80;;;18.48;;
23720;SDS011;42950;52.134;5.578;2022-12-18T06:09:45;29.08;;;18.00;;
23720;SDS011;42950;52.134;5.578;2022-12-18T06:12:11;32.08;;;18.65;;
23720;SDS011;42950;52.134;5.578;2022-12-18T06:14:36;31.55;;;18.10;;
23720;SDS011;42950;52.134;5.578;2022-12-18T06:17:02;35.20;;;18.58;;
23720;SDS011;42950;52.134;5.578;2022-12-18T06:19:27;31.42;;;18.80;;
23720;SDS011;42950;52.134;5.578;2022-12-18T06:21:53;30.35;;;16.85;;
23720;SDS011;42950;52.134;5.578;2022-12-18T06:24:18;31.27;;;17.85;;
23720;SDS011;42950;52.134;5.578;2022-12-18T06:26:44;27.05;;;17.40;;
23720;SDS011;42950;52.134;5.578;2022-12-18T06:29:10;30.15;;;17.27;;
23720;SDS011;42950;52.134;5.578;2022-12-18T06:31:35;32.53;;;18.33;;
23720;SDS011;42950;52.134;5.578;2022-12-18T06:34:04;30.30;;;17.42;;
23720;SDS011;42950;52.134;5.578;2022-12-18T06:36:30;27.45;;;17.15;;
23720;SDS011;42950;52.134;5.578;2022-12-18T06:38:55;27.92;;;16.35;;
23720;SDS011;42950;52.134;5.578;2022-12-18T06:41:21;29.10;;;16.83;;
23720;SDS011;42950;52.134;5.578;2022-12-18T06:43:47;30.50;;;16.90;;
23720;SDS011;42950;52.134;5.578;2022-12-18T06:46:13;28.42;;;17.45;;
23720;SDS011;42950;52.134;5.578;2022-12-18T06:48:38;30.25;;;17.23;;
23720;SDS011;42950;52.134;5.578;2022-12-18T06:51:04;28.38;;;16.20;;
23720;SDS011;42950;52.134;5.578;2022-12-18T06:53:31;28.30;;;16.65;;
23720;SDS011;42950;52.134;5.578;2022-12-18T06:56:03;32.42;;;17.63;;
23720;SDS011;42950;52.134;5.578;2022-12-18T06:58:31;30.33;;;17.45;;
23720;SDS011;42950;52.134;5.578;2022-12-18T07:01:00;29.70;;;17.00;;
23720;SDS011;42950;52.134;5.578;2022-12-18T07:03:27;30.15;;;17.92;;
23720;SDS011;42950;52.134;5.578;2022-12-18T07:05:52;31.55;;;16.85;;
23720;SDS011;42950;52.134;5.578;2022-12-18T07:08:18;32.40;;;18.50;;
23720;SDS011;42950;52.134;5.578;2022-12-18T07:10:44;39.92;;;21.10;;
23720;SDS011;42950;52.134;5.578;2022-12-18T07:13:09;58.08;;;29.20;;
23720;SDS011;42950;52.134;5.578;2022-12-18T07:15:35;70.28;;;33.33;;
23720;SDS011;42950;52.134;5.578;2022-12-18T07:18:01;56.85;;;29.92;;
23720;SDS011;42950;52.134;5.578;2022-12-18T07:20:27;50.80;;;26.98;;
23720;SDS011;42950;52.134;5.578;2022-12-18T07:22:52;46.42;;;24.95;;
23720;SDS011;42950;52.134;5.578;2022-12-18T07:25:18;39.80;;;22.10;;
23720;SDS011;42950;52.134;5.578;2022-12-18T07:27:44;33.25;;;20.33;;
23720;SDS011;42950;52.134;5.578;2022-12-18T07:30:09;33.53;;;19.35;;
23720;SDS011;42950;52.134;5.578;2022-12-18T07:32:35;30.35;;;18.10;;
23720;SDS011;42950;52.134;5.578;2022-12-18T07:35:01;32.05;;;19.35;;
23720;SDS011;42950;52.134;5.578;2022-12-18T07:37:26;29.38;;;18.48;;
23720;SDS011;42950;52.134;5.578;2022-12-18T07:39:52;29.40;;;17.98;;
23720;SDS011;42950;52.134;5.578;2022-12-18T07:42:18;29.85;;;18.40;;
23720;SDS011;42950;52.134;5.578;2022-12-18T07:44:55;30.08;;;18.50;;
23720;SDS011;42950;52.134;5.578;2022-12-18T07:47:21;30.05;;;19.10;;
23720;SDS011;42950;52.134;5.578;2022-12-18T07:49:46;30.48;;;18.52;;
23720;SDS011;42950;52.134;5.578;2022-12-18T07:52:12;31.20;;;18.80;;
23720;SDS011;42950;52.134;5.578;2022-12-18T07:54:38;31.88;;;18.58;;
23720;SDS011;42950;52.134;5.578;2022-12-18T07:57:05;28.90;;;18.02;;
23720;SDS011;42950;52.134;5.578;2022-12-18T07:59:30;28.38;;;17.58;;
23720;SDS011;42950;52.134;5.578;2022-12-18T08:01:56;29.92;;;17.95;;
23720;SDS011;42950;52.134;5.578;2022-12-18T08:04:22;28.05;;;17.42;;
23720;SDS011;42950;52.134;5.578;2022-12-18T08:06:47;28.48;;;17.50;;
23720;SDS011;42950;52.134;5.578;2022-12-18T08:09:13;30.33;;;17.58;;
23720;SDS011;42950;52.134;5.578;2022-12-18T08:11:38;29.55;;;17.15;;
23720;SDS011;42950;52.134;5.578;2022-12-18T08:14:04;30.85;;;17.45;;
23720;SDS011;42950;52.134;5.578;2022-12-18T08:16:29;28.77;;;17.83;;
23720;SDS011;42950;52.134;5.578;2022-12-18T08:18:55;28.30;;;17.73;;
23720;SDS011;42950;52.134;5.578;2022-12-18T08:21:25;27.15;;;17.15;;
23720;SDS011;42950;52.134;5.578;2022-12-18T08:23:52;29.58;;;17.30;;
23720;SDS011;42950;52.134;5.578;2022-12-18T08:26:20;28.48;;;17.63;;
23720;SDS011;42950;52.134;5.578;2022-12-18T08:28:45;26.45;;;16.58;;
23720;SDS011;42950;52.134;5.578;2022-12-18T08:31:11;26.33;;;16.33;;
23720;SDS011;42950;52.134;5.578;2022-12-18T08:33:38;26.48;;;16.27;;
23720;SDS011;42950;52.134;5.578;2022-12-18T08:36:04;22.38;;;15.52;;
23720;SDS011;42950;52.134;5.578;2022-12-18T08:38:33;25.30;;;15.55;;
23720;SDS011;42950;52.134;5.578;2022-12-18T08:40:59;24.02;;;15.05;;
23720;SDS011;42950;52.134;5.578;2022-12-18T08:43:25;25.65;;;15.18;;
23720;SDS011;42950;52.134;5.578;2022-12-18T08:46:14;20.27;;;14.38;;
23720;SDS011;42950;52.134;5.578;2022-12-18T08:48:42;22.15;;;15.25;;
23720;SDS011;42950;52.134;5.578;2022-12-18T08:51:08;24.20;;;15.00;;
23720;SDS011;42950;52.134;5.578;2022-12-18T08:53:35;22.00;;;14.05;;
23720;SDS011;42950;52.134;5.578;2022-12-18T08:56:01;22.65;;;14.88;;
23720;SDS011;42950;52.134;5.578;2022-12-18T08:58:27;23.92;;;15.50;;
23720;SDS011;42950;52.134;5.578;2022-12-18T09:00:53;23.73;;;13.95;;
23720;SDS011;42950;52.134;5.578;2022-12-18T09:03:19;23.08;;;14.52;;
23720;SDS011;42950;52.134;5.578;2022-12-18T09:05:47;22.50;;;14.60;;
23720;SDS011;42950;52.134;5.578;2022-12-18T09:08:13;23.42;;;14.27;;
23720;SDS011;42950;52.134;5.578;2022-12-18T09:10:45;24.60;;;14.32;;
23720;SDS011;42950;52.134;5.578;2022-12-18T09:13:12;20.27;;;13.15;;
23720;SDS011;42950;52.134;5.578;2022-12-18T09:16:13;22.52;;;13.40;;
23720;SDS011;42950;52.134;5.578;2022-12-18T09:18:32;23.17;;;13.43;;
23720;SDS011;42950;52.134;5.578;2022-12-18T09:20:57;20.25;;;13.15;;
23720;SDS011;42950;52.134;5.578;2022-12-18T09:23:23;22.52;;;13.60;;
23720;SDS011;42950;52.134;5.578;2022-12-18T09:25:48;22.75;;;13.52;;
23720;SDS011;42950;52.134;5.578;2022-12-18T09:28:15;20.08;;;12.55;;
23720;SDS011;42950;52.134;5.578;2022-12-18T09:30:43;18.35;;;12.02;;
23720;SDS011;42950;52.134;5.578;2022-12-18T09:33:13;17.52;;;12.10;;
23720;SDS011;42950;52.134;5.578;2022-12-18T09:35:40;21.77;;;13.38;;
23720;SDS011;42950;52.134;5.578;2022-12-18T09:38:08;18.92;;;13.23;;
23720;SDS011;42950;52.134;5.578;2022-12-18T09:40:48;19.55;;;12.70;;
23720;SDS011;42950;52.134;5.578;2022-12-18T09:43:19;21.85;;;13.18;;
23720;SDS011;42950;52.134;5.578;2022-12-18T09:45:55;22.13;;;13.20;;
23720;SDS011;42950;52.134;5.578;2022-12-18T09:48:32;21.45;;;12.73;;
23720;SDS011;42950;52.134;5.578;2022-12-18T09:51:08;20.27;;;12.05;;
23720;SDS011;42950;52.134;5.578;2022-12-18T09:53:44;18.52;;;11.98;;
23720;SDS011;42950;52.134;5.578;2022-12-18T09:56:17;17.58;;;11.32;;
23720;SDS011;42950;52.134;5.578;2022-12-18T09:58:49;19.55;;;12.38;;
23720;SDS011;42950;52.134;5.578;2022-12-18T10:01:26;18.50;;;11.70;;
23720;SDS011;42950;52.134;5.578;2022-12-18T10:03:53;17.00;;;11.55;;
23720;SDS011;42950;52.134;5.578;2022-12-18T10:06:33;17.83;;;11.70;;
23720;SDS011;42950;52.134;5.578;2022-12-18T10:23:01;18.40;;;11.55;;
23720;SDS011;42950;52.134;5.578;2022-12-18T10:25:31;19.10;;;11.63;;
23720;SDS011;42950;52.134;5.578;2022-12-18T10:28:13;18.95;;;12.07;;
23720;SDS011;42950;52.134;5.578;2022-12-18T10:30:41;17.20;;;11.07;;
23720;SDS011;42950;52.134;5.578;2022-12-18T10:33:13;16.17;;;10.70;;
23720;SDS011;42950;52.134;5.578;2022-12-18T10:35:44;18.08;;;11.30;;
23720;SDS011;42950;52.134;5.578;2022-12-18T10:43:19;15.27;;;10.63;;
23720;SDS011;42950;52.134;5.578;2022-12-18T10:48:33;15.88;;;10.85;;
23720;SDS011;42950;52.134;5.578;2022-12-18T10:51:05;16.92;;;11.07;;
23720;SDS011;42950;52.134;5.578;2022-12-18T10:53:33;18.02;;;11.43;;
23720;SDS011;42950;52.134;5.578;2022-12-18T10:56:00;17.48;;;10.55;;
23720;SDS011;42950;52.134;5.578;2022-12-18T10:58:31;17.35;;;10.75;;
23720;SDS011;42950;52.134;5.578;2022-12-18T11:01:07;20.60;;;11.52;;
23720;SDS011;42950;52.134;5.578;2022-12-18T11:06:13;17.17;;;10.63;;
23720;SDS011;42950;52.134;5.578;2022-12-18T11:08:41;18.25;;;11.27;;
23720;SDS011;42950;52.134;5.578;2022-12-18T11:11:19;18.08;;;10.70;;
23720;SDS011;42950;52.134;5.578;2022-12-18T11:14:05;14.88;;;10.73;;
23720;SDS011;42950;52.134;5.578;2022-12-18T11:16:43;16.90;;;10.85;;
23720;SDS011;42950;52.134;5.578;2022-12-18T11:19:13;15.35;;;10.38;;
23720;SDS011;42950;52.134;5.578;2022-12-18T11:21:51;18.60;;;10.98;;
23720;SDS011;42950;52.134;5.578;2022-12-18T11:24:19;17.27;;;11.32;;
23720;SDS011;42950;52.134;5.578;2022-12-18T11:26:50;18.75;;;11.05;;
23720;SDS011;42950;52.134;5.578;2022-12-18T11:29:17;15.43;;;10.48;;
23720;SDS011;42950;52.134;5.578;2022-12-18T11:31:47;16.50;;;11.30;;
23720;SDS011;42950;52.134;5.578;2022-12-18T11:36:48;16.80;;;10.85;;
23720;SDS011;42950;52.134;5.578;2022-12-18T11:39:18;17.75;;;10.98;;
23720;SDS011;42950;52.134;5.578;2022-12-18T11:41:49;17.35;;;12.07;;
23720;SDS011;42950;52.134;5.578;2022-12-18T11:44:44;17.10;;;11.02;;
23720;SDS011;42950;52.134;5.578;2022-12-18T11:47:27;17.65;;;10.50;;
23720;SDS011;42950;52.134;5.578;2022-12-18T11:50:14;16.65;;;10.43;;
23720;SDS011;42950;52.134;5.578;2022-12-18T11:52:43;16.55;;;11.40;;
23720;SDS011;42950;52.134;5.578;2022-12-18T11:55:16;15.88;;;10.98;;
23720;SDS011;42950;52.134;5.578;2022-12-18T12:00:57;19.15;;;11.25;;
23720;SDS011;42950;52.134;5.578;2022-12-18T12:20:03;17.30;;;11.55;;
23720;SDS011;42950;52.134;5.578;2022-12-18T12:23:02;18.50;;;11.25;;
23720;SDS011;42950;52.134;5.578;2022-12-18T12:39:06;18.88;;;12.55;;
23720;SDS011;42950;52.134;5.578;2022-12-18T12:41:37;21.30;;;12.88;;
23720;SDS011;42950;52.134;5.578;2022-12-18T12:44:32;17.17;;;11.98;;
23720;SDS011;42950;52.134;5.578;2022-12-18T12:47:10;18.02;;;11.50;;
23720;SDS011;42950;52.134;5.578;2022-12-18T12:49:44;18.30;;;11.82;;
23720;SDS011;42950;52.134;5.578;2022-12-18T12:52:14;20.48;;;12.48;;
23720;SDS011;42950;52.134;5.578;2022-12-18T12:54:58;21.85;;;12.35;;
23720;SDS011;42950;52.134;5.578;2022-12-18T12:57:33;17.75;;;12.43;;
23720;SDS011;42950;52.134;5.578;2022-12-18T13:02:35;18.52;;;12.20;;
23720;SDS011;42950;52.134;5.578;2022-12-18T13:08:26;19.15;;;12.30;;
23720;SDS011;42950;52.134;5.578;2022-12-18T13:10:34;18.15;;;11.30;;
23720;SDS011;42950;52.134;5.578;2022-12-18T13:13:12;17.70;;;11.63;;
23720;SDS011;42950;52.134;5.578;2022-12-18T13:15:41;19.02;;;11.52;;
23720;SDS011;42950;52.134;5.578;2022-12-18T13:23:19;18.88;;;11.85;;
23720;SDS011;42950;52.134;5.578;2022-12-18T13:25:48;19.88;;;12.90;;
23720;SDS011;42950;52.134;5.578;2022-12-18T13:28:22;17.00;;;12.25;;
23720;SDS011;42950;52.134;5.578;2022-12-18T13:30:57;18.50;;;12.15;;
23720;SDS011;42950;52.134;5.578;2022-12-18T13:35:51;18.55;;;11.95;;
23720;SDS011;42950;52.134;5.578;2022-12-18T13:40:57;17.35;;;12.02;;
23720;SDS011;42950;52.134;5.578;2022-12-18T13:43:24;18.33;;;12.25;;
23720;SDS011;42950;52.134;5.578;2022-12-18T13:46:02;18.52;;;12.13;;
23720;SDS011;42950;52.134;5.578;2022-12-18T13:48:29;20.33;;;12.95;;
23720;SDS011;42950;52.134;5.578;2022-12-18T13:51:04;21.20;;;12.23;;
23720;SDS011;42950;52.134;5.578;2022-12-18T13:53:34;20.98;;;12.70;;
23720;SDS011;42950;52.134;5.578;2022-12-18T13:56:08;17.58;;;12.05;;
23720;SDS011;42950;52.134;5.578;2022-12-18T13:58:33;17.58;;;11.70;;
23720;SDS011;42950;52.134;5.578;2022-12-18T14:00:59;19.90;;;13.27;;
23720;SDS011;42950;52.134;5.578;2022-12-18T14:03:27;20.65;;;12.48;;
23720;SDS011;42950;52.134;5.578;2022-12-18T14:05:55;19.05;;;12.10;;
23720;SDS011;42950;52.134;5.578;2022-12-18T14:08:24;18.33;;;12.48;;
23720;SDS011;42950;52.134;5.578;2022-12-18T14:10:53;19.75;;;11.77;;
23720;SDS011;42950;52.134;5.578;2022-12-18T14:13:30;17.67;;;11.65;;
23720;SDS011;42950;52.134;5.578;2022-12-18T14:16:00;19.95;;;12.65;;
23720;SDS011;42950;52.134;5.578;2022-12-18T14:18:37;20.20;;;12.35;;
23720;SDS011;42950;52.134;5.578;2022-12-18T14:21:15;19.83;;;12.60;;
23720;SDS011;42950;52.134;5.578;2022-12-18T14:26:46;20.75;;;12.85;;
23720;SDS011;42950;52.134;5.578;2022-12-18T14:29:23;19.75;;;12.82;;
23720;SDS011;42950;52.134;5.578;2022-12-18T14:34:51;20.48;;;12.88;;
23720;SDS011;42950;52.134;5.578;2022-12-18T14:37:25;20.30;;;12.68;;
23720;SDS011;42950;52.134;5.578;2022-12-18T14:39:53;21.88;;;12.82;;
23720;SDS011;42950;52.134;5.578;2022-12-18T14:42:23;21.73;;;12.90;;
23720;SDS011;42950;52.134;5.578;2022-12-18T14:45:38;19.08;;;12.65;;
23720;SDS011;42950;52.134;5.578;2022-12-18T14:47:57;19.38;;;12.20;;
23720;SDS011;42950;52.134;5.578;2022-12-18T14:50:24;19.05;;;12.75;;
23720;SDS011;42950;52.134;5.578;2022-12-18T14:52:50;22.73;;;12.98;;
23720;SDS011;42950;52.134;5.578;2022-12-18T14:55:16;23.63;;;12.88;;
23720;SDS011;42950;52.134;5.578;2022-12-18T14:57:43;18.80;;;12.82;;
23720;SDS011;42950;52.134;5.578;2022-12-18T15:00:16;18.85;;;12.77;;
23720;SDS011;42950;52.134;5.578;2022-12-18T15:02:44;20.75;;;13.05;;
23720;SDS011;42950;52.134;5.578;2022-12-18T15:10:15;24.02;;;13.88;;
23720;SDS011;42950;52.134;5.578;2022-12-18T15:13:07;22.05;;;14.25;;
23720;SDS011;42950;52.134;5.578;2022-12-18T15:20:38;21.10;;;13.18;;
23720;SDS011;42950;52.134;5.578;2022-12-18T15:23:58;20.95;;;13.07;;
23720;SDS011;42950;52.134;5.578;2022-12-18T15:33:43;22.88;;;14.13;;
23720;SDS011;42950;52.134;5.578;2022-12-18T15:36:12;19.40;;;13.13;;
23720;SDS011;42950;52.134;5.578;2022-12-18T15:38:39;24.75;;;14.73;;
23720;SDS011;42950;52.134;5.578;2022-12-18T15:41:05;21.35;;;13.93;;
23720;SDS011;42950;52.134;5.578;2022-12-18T15:43:31;24.58;;;14.88;;
23720;SDS011;42950;52.134;5.578;2022-12-18T15:46:06;25.42;;;14.85;;
23720;SDS011;42950;52.134;5.578;2022-12-18T15:48:40;23.00;;;14.48;;
23720;SDS011;42950;52.134;5.578;2022-12-18T15:51:14;21.85;;;14.23;;
23720;SDS011;42950;52.134;5.578;2022-12-18T15:53:45;24.77;;;14.88;;
23720;SDS011;42950;52.134;5.578;2022-12-18T15:56:16;23.35;;;15.20;;
23720;SDS011;42950;52.134;5.578;2022-12-18T15:59:00;23.95;;;15.48;;
23720;SDS011;42950;52.134;5.578;2022-12-18T16:01:28;23.15;;;15.38;;
23720;SDS011;42950;52.134;5.578;2022-12-18T16:03:54;24.00;;;15.02;;
23720;SDS011;42950;52.134;5.578;2022-12-18T16:06:21;23.65;;;15.45;;
23720;SDS011;42950;52.134;5.578;2022-12-18T16:08:47;25.10;;;15.95;;
23720;SDS011;42950;52.134;5.578;2022-12-18T16:11:20;28.30;;;17.30;;
23720;SDS011;42950;52.134;5.578;2022-12-18T16:16:43;23.85;;;15.77;;
23720;SDS011;42950;52.134;5.578;2022-12-18T16:19:09;28.50;;;17.33;;
23720;SDS011;42950;52.134;5.578;2022-12-18T16:21:35;27.77;;;16.08;;
23720;SDS011;42950;52.134;5.578;2022-12-18T16:24:01;29.35;;;16.23;;
23720;SDS011;42950;52.134;5.578;2022-12-18T16:26:27;27.25;;;17.02;;
23720;SDS011;42950;52.134;5.578;2022-12-18T16:28:52;26.65;;;16.95;;
23720;SDS011;42950;52.134;5.578;2022-12-18T16:31:18;30.30;;;17.67;;
23720;SDS011;42950;52.134;5.578;2022-12-18T16:33:44;29.38;;;17.83;;
23720;SDS011;42950;52.134;5.578;2022-12-18T16:36:09;27.13;;;16.90;;
23720;SDS011;42950;52.134;5.578;2022-12-18T16:38:35;27.52;;;17.13;;
23720;SDS011;42950;52.134;5.578;2022-12-18T16:41:00;29.45;;;16.63;;
23720;SDS011;42950;52.134;5.578;2022-12-18T16:43:44;30.15;;;17.77;;